sensor_id;sensor_type;location;lat;lon;timestamp;pressure;altitude;pressure_sealevel;temperature;humidity
36964;BME280;22878;48.616;35.326;2023-08-06T00:00:37;100697.17;;;23.74;100.00
36964;BME280;22878;48.616;35.326;2023-08-06T00:03:03;100694.25;;;23.71;100.00
36964;BME280;22878;48.616;35.326;2023-08-06T00:05:28;100696.02;;;23.70;100.00
36964;BME280;22878;48.616;35.326;2023-08-06T00:07:54;100696.06;;;23.71;100.00
36964;BME280;22878;48.616;35.326;2023-08-06T00:10:19;100691.42;;;23.71;100.00
36964;BME280;22878;48.616;35.326;2023-08-06T00:12:45;100690.26;;;23.71;100.00
36964;BME280;22878;48.616;35.326;2023-08-06T00:15:11;100691.45;;;23.70;100.00
36964;BME280;22878;48.616;35.326;2023-08-06T00:17:36;100689.68;;;23.69;100.00
36964;BME280;22878;48.616;35.326;2023-08-06T00:20:03;100688.86;;;23.68;100.00
36964;BME280;22878;48.616;35.326;2023-08-06T00:22:36;100684.16;;;23.66;100.00
36964;BME280;22878;48.616;35.326;2023-08-06T00:25:03;100686.42;;;23.63;100.00
36964;BME280;22878;48.616;35.326;2023-08-06T00:27:29;100685.58;;;23.61;100.00
36964;BME280;22878;48.616;35.326;2023-08-06T00:29:54;100680.45;;;23.60;100.00
36964;BME280;22878;48.616;35.326;2023-08-06T00:32:21;100677.49;;;23.58;100.00
36964;BME280;22878;48.616;35.326;2023-08-06T00:34:46;100668.85;;;23.56;100.00
36964;BME280;22878;48.616;35.326;2023-08-06T00:37:15;100662.41;;;23.54;100.00
36964;BME280;22878;48.616;35.326;2023-08-06T00:39:41;100657.02;;;23.52;100.00
36964;BME280;22878;48.616;35.326;2023-08-06T00:42:07;100650.61;;;23.51;100.00
36964;BME280;22878;48.616;35.326;2023-08-06T00:44:32;100646.54;;;23.48;100.00
36964;BME280;22878;48.616;35.326;2023-08-06T00:46:58;100643.73;;;23.47;100.00
36964;BME280;22878;48.616;35.326;2023-08-06T00:49:24;100645.45;;;23.44;100.00
36964;BME280;22878;48.616;35.326;2023-08-06T00:51:49;100641.30;;;23.40;100.00
36964;BME280;22878;48.616;35.326;2023-08-06T00:54:15;100636.94;;;23.39;100.00
36964;BME280;22878;48.616;35.326;2023-08-06T00:56:42;100634.31;;;23.38;100.00
36964;BME280;22878;48.616;35.326;2023-08-06T00:59:07;100630.25;;;23.35;100.00
36964;BME280;22878;48.616;35.326;2023-08-06T01:01:35;100624.16;;;23.31;100.00
36964;BME280;22878;48.616;35.326;2023-08-06T01:04:01;100625.15;;;23.29;100.00
36964;BME280;22878;48.616;35.326;2023-08-06T01:09:49;100622.27;;;23.27;100.00
36964;BME280;22878;48.616;35.326;2023-08-06T01:12:45;100618.02;;;23.24;100.00
36964;BME280;22878;48.616;35.326;2023-08-06T01:15:26;100618.55;;;23.21;100.00
36964;BME280;22878;48.616;35.326;2023-08-06T01:17:53;100613.17;;;23.18;100.00
36964;BME280;22878;48.616;35.326;2023-08-06T01:20:19;100609.39;;;23.17;100.00
36964;BME280;22878;48.616;35.326;2023-08-06T01:22:44;100609.38;;;23.17;100.00
36964;BME280;22878;48.616;35.326;2023-08-06T01:25:10;100607.78;;;23.16;100.00
36964;BME280;22878;48.616;35.326;2023-08-06T01:27:56;100611.08;;;23.13;100.00
36964;BME280;22878;48.616;35.326;2023-08-06T01:30:29;100615.52;;;23.09;100.00
36964;BME280;22878;48.616;35.326;2023-08-06T01:32:59;100608.89;;;23.06;100.00
36964;BME280;22878;48.616;35.326;2023-08-06T01:35:27;100609.63;;;23.04;100.00
36964;BME280;22878;48.616;35.326;2023-08-06T01:37:54;100605.61;;;23.01;100.00
36964;BME280;22878;48.616;35.326;2023-08-06T01:40:21;100605.20;;;22.98;100.00
36964;BME280;22878;48.616;35.326;2023-08-06T01:42:47;100601.37;;;22.97;100.00
36964;BME280;22878;48.616;35.326;2023-08-06T01:45:12;100601.23;;;22.95;100.00
36964;BME280;22878;48.616;35.326;2023-08-06T01:47:38;100601.38;;;22.93;100.00
36964;BME280;22878;48.616;35.326;2023-08-06T01:50:04;100596.08;;;22.92;100.00
36964;BME280;22878;48.616;35.326;2023-08-06T01:52:29;100597.95;;;22.91;100.00
36964;BME280;22878;48.616;35.326;2023-08-06T01:54:55;100591.13;;;22.92;100.00
36964;BME280;22878;48.616;35.326;2023-08-06T01:57:21;100594.04;;;22.92;100.00
36964;BME280;22878;48.616;35.326;2023-08-06T01:59:46;100599.57;;;22.93;100.00
36964;BME280;22878;48.616;35.326;2023-08-06T02:02:12;100601.27;;;22.95;100.00
36964;BME280;22878;48.616;35.326;2023-08-06T02:04:37;100595.92;;;22.96;100.00
36964;BME280;22878;48.616;35.326;2023-08-06T02:07:03;100593.89;;;22.96;100.00
36964;BME280;22878;48.616;35.326;2023-08-06T02:09:29;100592.30;;;22.94;100.00
36964;BME280;22878;48.616;35.326;2023-08-06T02:11:54;100591.69;;;22.92;100.00
36964;BME280;22878;48.616;35.326;2023-08-06T02:14:20;100585.34;;;22.90;100.00
36964;BME280;22878;48.616;35.326;2023-08-06T02:16:45;100584.31;;;22.87;100.00
36964;BME280;22878;48.616;35.326;2023-08-06T02:19:11;100582.30;;;22.88;100.00
36964;BME280;22878;48.616;35.326;2023-08-06T02:21:36;100582.69;;;22.88;100.00
36964;BME280;22878;48.616;35.326;2023-08-06T02:24:02;100582.75;;;22.88;100.00
36964;BME280;22878;48.616;35.326;2023-08-06T02:26:27;100577.63;;;22.89;100.00
36964;BME280;22878;48.616;35.326;2023-08-06T02:28:53;100578.90;;;22.92;100.00
36964;BME280;22878;48.616;35.326;2023-08-06T02:31:18;100580.85;;;23.01;100.00
36964;BME280;22878;48.616;35.326;2023-08-06T02:33:44;100578.58;;;23.10;100.00
36964;BME280;22878;48.616;35.326;2023-08-06T02:36:10;100578.01;;;23.18;100.00
36964;BME280;22878;48.616;35.326;2023-08-06T02:38:35;100575.41;;;23.26;100.00
36964;BME280;22878;48.616;35.326;2023-08-06T02:41:04;100573.42;;;23.32;100.00
36964;BME280;22878;48.616;35.326;2023-08-06T02:43:30;100569.91;;;23.39;100.00
36964;BME280;22878;48.616;35.326;2023-08-06T02:45:59;100569.86;;;23.45;100.00
36964;BME280;22878;48.616;35.326;2023-08-06T02:48:24;100570.02;;;23.50;100.00
36964;BME280;22878;48.616;35.326;2023-08-06T02:50:50;100570.15;;;23.57;100.00
36964;BME280;22878;48.616;35.326;2023-08-06T02:53:15;100569.20;;;23.63;100.00
36964;BME280;22878;48.616;35.326;2023-08-06T02:55:48;100570.09;;;23.69;100.00
36964;BME280;22878;48.616;35.326;2023-08-06T02:58:16;100570.41;;;23.76;100.00
36964;BME280;22878;48.616;35.326;2023-08-06T03:00:43;100577.34;;;23.82;100.00
36964;BME280;22878;48.616;35.326;2023-08-06T03:03:12;100573.88;;;23.87;100.00
36964;BME280;22878;48.616;35.326;2023-08-06T03:05:37;100569.20;;;23.92;100.00
36964;BME280;22878;48.616;35.326;2023-08-06T03:08:03;100569.48;;;23.96;100.00
36964;BME280;22878;48.616;35.326;2023-08-06T03:10:28;100567.20;;;24.02;100.00
36964;BME280;22878;48.616;35.326;2023-08-06T03:12:54;100565.36;;;24.07;100.00
36964;BME280;22878;48.616;35.326;2023-08-06T03:15:19;100565.39;;;24.11;100.00
36964;BME280;22878;48.616;35.326;2023-08-06T03:17:45;100568.77;;;24.16;100.00
36964;BME280;22878;48.616;35.326;2023-08-06T03:20:10;100567.03;;;24.22;100.00
36964;BME280;22878;48.616;35.326;2023-08-06T03:22:36;100564.30;;;24.29;100.00
36964;BME280;22878;48.616;35.326;2023-08-06T03:25:02;100564.36;;;24.37;100.00
36964;BME280;22878;48.616;35.326;2023-08-06T03:27:28;100568.08;;;24.50;100.00
36964;BME280;22878;48.616;35.326;2023-08-06T03:29:53;100565.36;;;24.60;100.00
36964;BME280;22878;48.616;35.326;2023-08-06T03:32:19;100565.86;;;24.71;100.00
36964;BME280;22878;48.616;35.326;2023-08-06T03:34:45;100563.67;;;24.84;100.00
36964;BME280;22878;48.616;35.326;2023-08-06T03:37:10;100560.96;;;24.97;100.00
36964;BME280;22878;48.616;35.326;2023-08-06T03:39:36;100559.55;;;25.07;100.00
36964;BME280;22878;48.616;35.326;2023-08-06T03:42:01;100559.92;;;25.19;100.00
36964;BME280;22878;48.616;35.326;2023-08-06T03:44:27;100555.31;;;25.31;100.00
36964;BME280;22878;48.616;35.326;2023-08-06T03:46:53;100555.90;;;25.55;100.00
36964;BME280;22878;48.616;35.326;2023-08-06T03:49:19;100548.53;;;25.96;100.00
36964;BME280;22878;48.616;35.326;2023-08-06T03:51:44;100554.05;;;26.56;100.00
36964;BME280;22878;48.616;35.326;2023-08-06T03:54:10;100559.20;;;27.22;100.00
36964;BME280;22878;48.616;35.326;2023-08-06T03:56:35;100554.13;;;27.89;100.00
36964;BME280;22878;48.616;35.326;2023-08-06T03:59:01;100551.02;;;28.57;100.00
36964;BME280;22878;48.616;35.326;2023-08-06T04:01:26;100553.76;;;29.04;99.84
36964;BME280;22878;48.616;35.326;2023-08-06T04:03:52;100555.04;;;29.32;97.68
36964;BME280;22878;48.616;35.326;2023-08-06T04:06:17;100548.41;;;29.73;94.69
36964;BME280;22878;48.616;35.326;2023-08-06T04:08:45;100558.35;;;30.05;92.00
36964;BME280;22878;48.616;35.326;2023-08-06T04:11:14;100554.31;;;30.45;88.12
36964;BME280;22878;48.616;35.326;2023-08-06T04:13:47;100548.82;;;30.91;85.54
36964;BME280;22878;48.616;35.326;2023-08-06T04:16:12;100553.52;;;31.34;80.87
36964;BME280;22878;48.616;35.326;2023-08-06T04:18:40;100558.93;;;31.72;79.93
36964;BME280;22878;48.616;35.326;2023-08-06T04:21:06;100546.90;;;32.08;75.07
36964;BME280;22878;48.616;35.326;2023-08-06T04:23:31;100546.36;;;32.18;73.19
36964;BME280;22878;48.616;35.326;2023-08-06T04:25:58;100542.20;;;32.51;73.55
36964;BME280;22878;48.616;35.326;2023-08-06T04:28:23;100536.63;;;32.88;68.71
36964;BME280;22878;48.616;35.326;2023-08-06T04:30:49;100535.67;;;32.87;67.38
36964;BME280;22878;48.616;35.326;2023-08-06T04:33:14;100536.10;;;33.09;66.92
36964;BME280;22878;48.616;35.326;2023-08-06T04:35:40;100533.96;;;33.14;64.57
36964;BME280;22878;48.616;35.326;2023-08-06T04:38:05;100544.02;;;33.35;64.55
36964;BME280;22878;48.616;35.326;2023-08-06T04:40:33;100542.28;;;33.79;64.13
36964;BME280;22878;48.616;35.326;2023-08-06T04:42:59;100541.52;;;34.22;61.94
36964;BME280;22878;48.616;35.326;2023-08-06T04:45:26;100535.84;;;34.58;60.23
36964;BME280;22878;48.616;35.326;2023-08-06T04:47:51;100538.30;;;34.82;58.40
36964;BME280;22878;48.616;35.326;2023-08-06T04:50:17;100533.35;;;34.91;57.06
36964;BME280;22878;48.616;35.326;2023-08-06T04:52:42;100530.00;;;34.76;55.90
36964;BME280;22878;48.616;35.326;2023-08-06T04:55:08;100529.72;;;34.83;55.41
36964;BME280;22878;48.616;35.326;2023-08-06T04:57:34;100528.11;;;34.79;54.75
36964;BME280;22878;48.616;35.326;2023-08-06T04:59:59;100527.20;;;34.89;54.90
36964;BME280;22878;48.616;35.326;2023-08-06T05:02:25;100525.77;;;35.28;53.88
36964;BME280;22878;48.616;35.326;2023-08-06T05:04:50;100521.77;;;35.42;53.13
36964;BME280;22878;48.616;35.326;2023-08-06T05:07:16;100527.84;;;35.36;52.32
36964;BME280;22878;48.616;35.326;2023-08-06T05:09:41;100522.05;;;35.40;53.01
36964;BME280;22878;48.616;35.326;2023-08-06T05:12:07;100516.65;;;35.73;51.96
36964;BME280;22878;48.616;35.326;2023-08-06T05:14:33;100514.47;;;35.98;51.42
36964;BME280;22878;48.616;35.326;2023-08-06T05:16:58;100514.50;;;36.11;50.13
36964;BME280;22878;48.616;35.326;2023-08-06T05:19:24;100514.59;;;36.27;49.89
36964;BME280;22878;48.616;35.326;2023-08-06T05:21:49;100514.98;;;36.37;49.37
36964;BME280;22878;48.616;35.326;2023-08-06T05:24:15;100512.04;;;36.59;48.97
36964;BME280;22878;48.616;35.326;2023-08-06T05:26:40;100512.73;;;36.81;47.84
36964;BME280;22878;48.616;35.326;2023-08-06T05:29:05;100513.54;;;36.69;47.25
36964;BME280;22878;48.616;35.326;2023-08-06T05:31:31;100507.02;;;36.51;47.74
36964;BME280;22878;48.616;35.326;2023-08-06T05:33:57;100503.98;;;36.69;47.48
36964;BME280;22878;48.616;35.326;2023-08-06T05:36:22;100498.45;;;36.96;47.32
36964;BME280;22878;48.616;35.326;2023-08-06T05:38:47;100501.42;;;37.24;46.30
36964;BME280;22878;48.616;35.326;2023-08-06T05:41:13;100490.20;;;37.26;46.24
36964;BME280;22878;48.616;35.326;2023-08-06T05:43:39;100486.98;;;37.43;45.61
36964;BME280;22878;48.616;35.326;2023-08-06T05:46:04;100484.38;;;37.31;45.39
36964;BME280;22878;48.616;35.326;2023-08-06T05:48:30;100485.46;;;37.62;45.80
36964;BME280;22878;48.616;35.326;2023-08-06T05:50:57;100489.54;;;37.88;44.29
36964;BME280;22878;48.616;35.326;2023-08-06T05:53:22;100489.09;;;37.74;44.20
36964;BME280;22878;48.616;35.326;2023-08-06T05:55:48;100491.54;;;37.63;43.58
36964;BME280;22878;48.616;35.326;2023-08-06T05:58:13;100489.34;;;37.61;43.97
36964;BME280;22878;48.616;35.326;2023-08-06T06:00:39;100494.52;;;37.96;43.47
36964;BME280;22878;48.616;35.326;2023-08-06T06:03:04;100494.79;;;38.03;42.86
36964;BME280;22878;48.616;35.326;2023-08-06T06:05:30;100489.10;;;38.10;42.50
36964;BME280;22878;48.616;35.326;2023-08-06T06:07:55;100486.11;;;38.15;42.45
36964;BME280;22878;48.616;35.326;2023-08-06T06:10:21;100483.96;;;38.22;42.05
36964;BME280;22878;48.616;35.326;2023-08-06T06:12:46;100478.56;;;38.17;42.61
36964;BME280;22878;48.616;35.326;2023-08-06T06:15:12;100477.50;;;38.58;42.12
36964;BME280;22878;48.616;35.326;2023-08-06T06:17:38;100474.49;;;38.95;41.74
36964;BME280;22878;48.616;35.326;2023-08-06T06:20:04;100471.02;;;39.23;40.74
36964;BME280;22878;48.616;35.326;2023-08-06T06:22:30;100470.86;;;39.25;40.30
36964;BME280;22878;48.616;35.326;2023-08-06T06:24:55;100463.00;;;39.48;40.20
36964;BME280;22878;48.616;35.326;2023-08-06T06:27:21;100459.15;;;39.78;40.10
36964;BME280;22878;48.616;35.326;2023-08-06T06:29:47;100455.88;;;40.32;39.60
36964;BME280;22878;48.616;35.326;2023-08-06T06:32:12;100461.09;;;40.63;39.14
36964;BME280;22878;48.616;35.326;2023-08-06T06:34:38;100459.21;;;41.05;39.13
36964;BME280;22878;48.616;35.326;2023-08-06T06:37:03;100462.61;;;41.60;38.38
36964;BME280;22878;48.616;35.326;2023-08-06T06:39:29;100462.75;;;41.72;36.96
36964;BME280;22878;48.616;35.326;2023-08-06T06:41:54;100458.33;;;41.50;36.74
36964;BME280;22878;48.616;35.326;2023-08-06T06:44:20;100456.27;;;41.37;36.33
36964;BME280;22878;48.616;35.326;2023-08-06T06:46:46;100459.71;;;41.03;36.78
36964;BME280;22878;48.616;35.326;2023-08-06T06:49:12;100461.29;;;40.86;37.02
36964;BME280;22878;48.616;35.326;2023-08-06T06:51:37;100457.36;;;40.78;37.00
36964;BME280;22878;48.616;35.326;2023-08-06T06:54:03;100458.99;;;40.81;36.74
36964;BME280;22878;48.616;35.326;2023-08-06T06:56:28;100455.64;;;40.79;36.64
36964;BME280;22878;48.616;35.326;2023-08-06T06:58:53;100455.30;;;40.76;37.08
36964;BME280;22878;48.616;35.326;2023-08-06T07:01:19;100450.36;;;41.00;36.91
36964;BME280;22878;48.616;35.326;2023-08-06T07:03:44;100449.02;;;41.11;37.07
36964;BME280;22878;48.616;35.326;2023-08-06T07:06:10;100445.23;;;41.23;37.05
36964;BME280;22878;48.616;35.326;2023-08-06T07:08:37;100446.58;;;41.42;36.64
36964;BME280;22878;48.616;35.326;2023-08-06T07:11:06;100446.97;;;41.73;36.48
36964;BME280;22878;48.616;35.326;2023-08-06T07:13:33;100446.45;;;41.87;35.65
36964;BME280;22878;48.616;35.326;2023-08-06T07:15:59;100441.48;;;42.04;35.79
36964;BME280;22878;48.616;35.326;2023-08-06T07:18:25;100441.20;;;42.36;35.58
36964;BME280;22878;48.616;35.326;2023-08-06T07:20:51;100437.08;;;42.50;35.45
36964;BME280;22878;48.616;35.326;2023-08-06T07:23:19;100432.78;;;42.62;34.69
36964;BME280;22878;48.616;35.326;2023-08-06T07:25:46;100432.63;;;42.41;34.25
36964;BME280;22878;48.616;35.326;2023-08-06T07:28:13;100428.31;;;42.38;34.20
36964;BME280;22878;48.616;35.326;2023-08-06T07:30:39;100426.36;;;42.27;34.00
36964;BME280;22878;48.616;35.326;2023-08-06T07:33:05;100424.58;;;42.15;34.07
36964;BME280;22878;48.616;35.326;2023-08-06T07:35:31;100421.92;;;42.11;34.09
36964;BME280;22878;48.616;35.326;2023-08-06T07:37:57;100421.77;;;42.06;33.92
36964;BME280;22878;48.616;35.326;2023-08-06T07:40:22;100415.36;;;42.08;33.93
36964;BME280;22878;48.616;35.326;2023-08-06T07:42:48;100412.98;;;42.03;33.78
36964;BME280;22878;48.616;35.326;2023-08-06T07:45:14;100412.52;;;42.12;34.11
36964;BME280;22878;48.616;35.326;2023-08-06T07:47:39;100418.19;;;42.40;33.98
36964;BME280;22878;48.616;35.326;2023-08-06T07:50:05;100412.67;;;42.64;33.77
36964;BME280;22878;48.616;35.326;2023-08-06T07:52:31;100411.55;;;43.02;33.64
36964;BME280;22878;48.616;35.326;2023-08-06T07:54:56;100410.88;;;43.11;32.46
36964;BME280;22878;48.616;35.326;2023-08-06T07:57:22;100406.09;;;42.91;32.52
36964;BME280;22878;48.616;35.326;2023-08-06T07:59:47;100397.88;;;42.84;32.51
36964;BME280;22878;48.616;35.326;2023-08-06T08:02:13;100395.60;;;42.77;32.64
36964;BME280;22878;48.616;35.326;2023-08-06T08:04:38;100392.54;;;42.65;32.31
36964;BME280;22878;48.616;35.326;2023-08-06T08:07:04;100392.84;;;42.76;32.69
36964;BME280;22878;48.616;35.326;2023-08-06T08:09:30;100396.57;;;43.04;32.21
36964;BME280;22878;48.616;35.326;2023-08-06T08:11:55;100390.63;;;42.96;32.08
36964;BME280;22878;48.616;35.326;2023-08-06T08:14:21;100385.11;;;42.97;32.12
36964;BME280;22878;48.616;35.326;2023-08-06T08:16:47;100385.30;;;43.05;32.59
36964;BME280;22878;48.616;35.326;2023-08-06T08:19:12;100386.17;;;43.48;32.24
36964;BME280;22878;48.616;35.326;2023-08-06T08:21:38;100380.37;;;43.70;32.09
36964;BME280;22878;48.616;35.326;2023-08-06T08:24:04;100377.16;;;43.82;31.38
36964;BME280;22878;48.616;35.326;2023-08-06T08:26:30;100382.66;;;43.44;31.14
36964;BME280;22878;48.616;35.326;2023-08-06T08:28:56;100381.00;;;43.29;31.70
36964;BME280;22878;48.616;35.326;2023-08-06T08:31:22;100378.64;;;43.54;31.58
36964;BME280;22878;48.616;35.326;2023-08-06T08:33:47;100374.02;;;44.07;31.06
36964;BME280;22878;48.616;35.326;2023-08-06T08:36:13;100374.34;;;43.91;29.85
36964;BME280;22878;48.616;35.326;2023-08-06T08:38:38;100367.38;;;43.39;30.38
36964;BME280;22878;48.616;35.326;2023-08-06T08:41:04;100370.05;;;43.15;30.23
36964;BME280;22878;48.616;35.326;2023-08-06T08:43:30;100371.32;;;42.89;30.48
36964;BME280;22878;48.616;35.326;2023-08-06T08:45:57;100365.30;;;42.94;31.00
36964;BME280;22878;48.616;35.326;2023-08-06T08:48:24;100353.65;;;43.11;30.73
36964;BME280;22878;48.616;35.326;2023-08-06T08:50:52;100353.92;;;43.10;31.33
36964;BME280;22878;48.616;35.326;2023-08-06T08:53:18;100348.23;;;43.31;30.80
36964;BME280;22878;48.616;35.326;2023-08-06T08:55:47;100352.37;;;43.25;30.29
36964;BME280;22878;48.616;35.326;2023-08-06T08:58:13;100351.23;;;43.16;30.09
36964;BME280;22878;48.616;35.326;2023-08-06T09:00:42;100343.05;;;43.05;30.00
36964;BME280;22878;48.616;35.326;2023-08-06T09:03:10;100349.38;;;43.09;30.37
36964;BME280;22878;48.616;35.326;2023-08-06T09:05:39;100332.30;;;43.06;30.24
36964;BME280;22878;48.616;35.326;2023-08-06T09:08:08;100339.80;;;43.04;30.16
36964;BME280;22878;48.616;35.326;2023-08-06T09:10:36;100343.01;;;43.02;29.83
36964;BME280;22878;48.616;35.326;2023-08-06T09:13:02;100338.90;;;42.94;29.88
36964;BME280;22878;48.616;35.326;2023-08-06T09:15:29;100333.41;;;42.82;29.62
36964;BME280;22878;48.616;35.326;2023-08-06T09:17:55;100332.88;;;42.80;29.39
36964;BME280;22878;48.616;35.326;2023-08-06T09:20:21;100327.21;;;42.71;29.12
36964;BME280;22878;48.616;35.326;2023-08-06T09:22:47;100322.71;;;42.74;29.64
36964;BME280;22878;48.616;35.326;2023-08-06T09:25:24;100321.62;;;42.80;29.49
36964;BME280;22878;48.616;35.326;2023-08-06T09:27:51;100314.58;;;42.87;29.51
36964;BME280;22878;48.616;35.326;2023-08-06T09:30:33;100312.98;;;42.75;29.02
36964;BME280;22878;48.616;35.326;2023-08-06T09:32:59;100308.52;;;42.38;29.55
36964;BME280;22878;48.616;35.326;2023-08-06T22:23:30;99738.39;;;25.89;100.00
36964;BME280;22878;48.616;35.326;2023-08-06T22:31:25;99727.98;;;26.05;100.00
36964;BME280;22878;48.616;35.326;2023-08-06T22:33:51;99728.73;;;26.09;100.00
36964;BME280;22878;48.616;35.326;2023-08-06T22:39:38;99726.06;;;26.13;100.00
36964;BME280;22878;48.616;35.326;2023-08-06T22:42:04;99723.38;;;26.14;100.00
36964;BME280;22878;48.616;35.326;2023-08-06T22:44:30;99722.91;;;26.12;100.00
36964;BME280;22878;48.616;35.326;2023-08-06T22:46:55;99721.08;;;26.11;100.00
36964;BME280;22878;48.616;35.326;2023-08-06T22:49:21;99715.80;;;26.10;100.00
36964;BME280;22878;48.616;35.326;2023-08-06T22:51:47;99719.34;;;26.09;100.00
36964;BME280;22878;48.616;35.326;2023-08-06T22:54:12;99717.74;;;26.07;100.00
36964;BME280;22878;48.616;35.326;2023-08-06T22:56:38;99713.14;;;26.03;100.00
36964;BME280;22878;48.616;35.326;2023-08-06T22:59:03;99711.79;;;25.98;100.00
36964;BME280;22878;48.616;35.326;2023-08-06T23:01:29;99712.63;;;25.94;100.00
36964;BME280;22878;48.616;35.326;2023-08-06T23:03:54;99706.63;;;25.92;100.00
36964;BME280;22878;48.616;35.326;2023-08-06T23:06:20;99705.02;;;25.89;100.00
36964;BME280;22878;48.616;35.326;2023-08-06T23:12:25;99702.83;;;25.82;100.00
36964;BME280;22878;48.616;35.326;2023-08-06T23:14:50;99700.03;;;25.79;100.00
36964;BME280;22878;48.616;35.326;2023-08-06T23:17:16;99700.50;;;25.76;100.00
36964;BME280;22878;48.616;35.326;2023-08-06T23:19:41;99700.30;;;25.71;100.00
36964;BME280;22878;48.616;35.326;2023-08-06T23:22:07;99698.94;;;25.67;100.00
36964;BME280;22878;48.616;35.326;2023-08-06T23:24:32;99696.07;;;25.62;100.00
36964;BME280;22878;48.616;35.326;2023-08-06T23:26:57;99695.19;;;25.59;100.00
36964;BME280;22878;48.616;35.326;2023-08-06T23:29:23;99689.02;;;25.58;100.00
36964;BME280;22878;48.616;35.326;2023-08-06T23:31:48;99685.86;;;25.56;100.00
36964;BME280;22878;48.616;35.326;2023-08-06T23:34:14;99684.49;;;25.54;100.00
36964;BME280;22878;48.616;35.326;2023-08-06T23:36:39;99681.41;;;25.51;100.00
36964;BME280;22878;48.616;35.326;2023-08-06T23:39:05;99679.71;;;25.47;100.00
36964;BME280;22878;48.616;35.326;2023-08-06T23:41:32;99678.27;;;25.43;100.00
36964;BME280;22878;48.616;35.326;2023-08-06T23:43:57;99678.48;;;25.40;100.00
36964;BME280;22878;48.616;35.326;2023-08-06T23:46:23;99678.33;;;25.38;100.00
36964;BME280;22878;48.616;35.326;2023-08-06T23:48:49;99676.73;;;25.37;100.00
36964;BME280;22878;48.616;35.326;2023-08-06T23:51:15;99678.76;;;25.34;100.00
36964;BME280;22878;48.616;35.326;2023-08-06T23:53:40;99679.91;;;25.31;100.00
36964;BME280;22878;48.616;35.326;2023-08-06T23:56:06;99681.55;;;25.29;100.00
36964;BME280;22878;48.616;35.326;2023-08-06T23:58:31;99682.73;;;25.28;100.00
